< < Back
Terminal Aerodrome Forecast


Current Version              Previous Versions:   1  2  3  4  5  6  7  8  9  

Terminal Aerodrome Forecast

487
FTUS42 KTAE 011731
TAFVLD
TAF
KVLD 011731Z 0118/0218 04003KT P6SM VCTS BKN025CB BKN050
      TEMPO 0118/0122 3SM TSRA
     FM020100 VRB03KT P6SM BKN250
     FM020900 14003KT 5SM BR BKN007
     FM021400 15005KT P6SM VCSH BKN025=



Latest METAR

852
SAUS70 KWBC 020600 RRB
MTRVLD
METAR KVLD 020553Z AUTO 13005KT 10SM BKN120 26/25 A3007 RMK AO2 SLP187
60018 T02560250 10267 20250 58006


USA.gov is the U.S. government's official web portal to all federal, state and local government web resources and services.